Ramore, Canada
Current Conditions -  °F | °C
As of 9:00 AM on Monday 22 Dec 2014 (Local Time) from CYTS Reporting Station
Overcast Overcast  
Wind Chill: 18°   Ceiling: 1100
Heat Index: 28°   Visibility: 15mi
Dew Point: 25°   Wind: 12mph
Humidity: 86%   Direction: 160°SSE
Pressure: 30.1"   Gusts: 18mph
Location:  48.42°N, 80.32°W
Report Text: CYTS 221400Z 16010G16KT 15SM BKN011 OVC022 M02/M04 A3010 RMK SC6SC2 SLP211
Loading
Personal Weather Stations






























Interactive Weather Map New forecast layout! Learn more

10-Day Weather Forecast

Advertisements
Track Severe Weather on mobile